createdAt,value
2019-03-30T00:01:09.683Z,16.93
2019-03-30T00:03:38.211Z,15.87
2019-03-30T00:06:06.674Z,17.40
2019-03-30T00:08:35.155Z,16.63
2019-03-30T00:11:03.686Z,15.17
2019-03-30T00:13:32.197Z,15.97
2019-03-30T00:16:00.796Z,15.20
2019-03-30T00:18:29.243Z,15.17
2019-03-30T00:20:57.722Z,16.03
2019-03-30T00:23:26.163Z,5.03
2019-03-30T00:25:54.646Z,4.03
2019-03-30T00:28:23.098Z,4.40
2019-03-30T00:30:52.365Z,11.80
2019-03-30T00:33:20.809Z,14.93
2019-03-30T00:35:49.269Z,15.00
2019-03-30T00:38:17.935Z,15.23
2019-03-30T00:40:46.422Z,14.70
2019-03-30T00:43:14.899Z,5.33
2019-03-30T00:45:43.499Z,14.80
2019-03-30T00:48:11.968Z,13.47
2019-03-30T00:50:40.444Z,14.20
2019-03-30T00:53:08.955Z,14.90
2019-03-30T00:55:37.678Z,14.57
2019-03-30T00:58:06.118Z,14.37
2019-03-30T01:00:34.890Z,13.63
2019-03-30T01:03:03.424Z,14.63
2019-03-30T01:05:31.896Z,14.37
2019-03-30T01:08:00.345Z,13.63
2019-03-30T01:10:48.157Z,14.23
2019-03-30T01:13:16.595Z,14.13
2019-03-30T01:15:45.147Z,16.10
2019-03-30T01:18:13.581Z,15.20
2019-03-30T01:20:42.059Z,15.00
2019-03-30T01:23:10.667Z,15.30
2019-03-30T01:25:39.142Z,15.63
2019-03-30T01:28:07.609Z,15.67
2019-03-30T01:30:36.225Z,14.90
2019-03-30T01:33:04.694Z,13.90
2019-03-30T01:35:33.165Z,15.47
2019-03-30T01:38:01.631Z,15.60
2019-03-30T01:40:30.119Z,15.30
2019-03-30T01:42:58.631Z,14.17
2019-03-30T01:45:27.095Z,14.00
2019-03-30T01:47:55.562Z,14.33
2019-03-30T01:50:24.021Z,15.90
2019-03-30T01:52:52.459Z,14.93
2019-03-30T01:55:20.998Z,15.40
2019-03-30T01:57:49.955Z,14.73
2019-03-30T02:00:19.514Z,15.10
2019-03-30T02:02:47.966Z,15.47
2019-03-30T02:05:16.697Z,14.40
2019-03-30T02:07:45.152Z,14.77
2019-03-30T02:10:15.518Z,14.90
2019-03-30T02:12:43.967Z,15.57
2019-03-30T02:15:12.783Z,17.17
2019-03-30T02:17:41.328Z,16.37
2019-03-30T02:20:12.945Z,15.73
2019-03-30T02:22:41.400Z,17.67
2019-03-30T02:25:10.046Z,16.40
2019-03-30T02:27:38.575Z,17.20
2019-03-30T02:30:07.489Z,17.23
2019-03-30T02:32:36.004Z,17.50
2019-03-30T02:35:06.723Z,15.63
2019-03-30T02:37:35.173Z,17.17
2019-03-30T02:40:04.794Z,16.30
2019-03-30T02:42:33.363Z,15.50
2019-03-30T02:45:01.901Z,16.13
2019-03-30T02:47:30.419Z,15.97
2019-03-30T02:49:58.996Z,16.87
2019-03-30T02:52:27.539Z,15.50
2019-03-30T02:54:56.021Z,16.20
2019-03-30T02:57:24.486Z,17.40
2019-03-30T02:59:52.931Z,16.83
2019-03-30T03:02:21.414Z,16.33
2019-03-30T03:04:49.984Z,16.10
2019-03-30T03:07:18.452Z,17.70
2019-03-30T03:09:46.900Z,16.80
2019-03-30T03:12:15.377Z,14.57
2019-03-30T03:14:43.897Z,16.37
2019-03-30T03:17:12.440Z,16.27
2019-03-30T03:19:40.939Z,17.03
2019-03-30T03:22:09.447Z,16.97
2019-03-30T03:24:38.020Z,17.10
2019-03-30T03:27:06.500Z,21.80
2019-03-30T03:29:34.997Z,16.87
2019-03-30T03:32:03.576Z,17.80
2019-03-30T03:34:32.215Z,17.63
2019-03-30T03:37:00.734Z,17.67
2019-03-30T03:39:29.196Z,17.50
2019-03-30T03:41:57.760Z,17.57
2019-03-30T03:44:26.284Z,4.20
2019-03-30T03:46:54.853Z,17.80
2019-03-30T03:49:23.333Z,17.77
2019-03-30T03:51:52.095Z,18.33
2019-03-30T03:54:40.537Z,16.40
2019-03-30T03:57:11.895Z,17.03
2019-03-30T03:59:41.159Z,17.53
2019-03-30T04:02:30.551Z,17.63
2019-03-30T04:05:01.024Z,17.37
2019-03-30T04:07:32.582Z,17.80
2019-03-30T04:10:02.815Z,19.23
2019-03-30T04:12:34.481Z,17.73
2019-03-30T04:15:05.599Z,18.00
2019-03-30T04:17:34.264Z,16.97
2019-03-30T04:20:02.792Z,16.83
2019-03-30T04:22:31.387Z,18.33
2019-03-30T04:24:59.844Z,19.03
2019-03-30T04:27:28.388Z,19.50
2019-03-30T04:29:56.876Z,19.93
2019-03-30T04:32:25.348Z,19.00
2019-03-30T04:34:54.707Z,19.40
2019-03-30T04:37:23.176Z,18.77
2019-03-30T04:39:51.661Z,19.87
2019-03-30T04:42:20.212Z,19.70
2019-03-30T04:44:48.669Z,17.73
2019-03-30T04:47:17.243Z,19.10
2019-03-30T04:49:45.719Z,17.97
2019-03-30T04:52:14.283Z,19.87
2019-03-30T04:54:42.863Z,18.27
2019-03-30T04:57:11.338Z,20.10
2019-03-30T04:59:39.786Z,21.00
2019-03-30T05:02:08.298Z,18.20
2019-03-30T05:04:36.764Z,19.47
2019-03-30T05:07:05.300Z,18.53
2019-03-30T05:09:33.810Z,21.53
2019-03-30T05:12:02.292Z,20.47
2019-03-30T05:14:30.809Z,20.70
2019-03-30T05:16:59.343Z,20.47
2019-03-30T05:19:27.791Z,21.57
2019-03-30T05:21:56.266Z,17.87
2019-03-30T05:24:24.712Z,19.43
2019-03-30T05:26:53.295Z,18.30
2019-03-30T05:29:21.933Z,16.80
2019-03-30T05:31:53.035Z,20.73
2019-03-30T05:34:21.490Z,19.07
2019-03-30T05:36:49.951Z,16.70
2019-03-30T05:39:18.432Z,18.43
2019-03-30T05:41:46.879Z,17.53
2019-03-30T05:44:15.357Z,16.07
2019-03-30T05:46:43.880Z,16.37
2019-03-30T05:49:12.359Z,18.47
2019-03-30T05:51:40.818Z,19.13
2019-03-30T05:54:09.343Z,19.93
2019-03-30T05:56:37.775Z,19.07
2019-03-30T05:59:06.245Z,18.37
2019-03-30T06:01:34.697Z,20.27
2019-03-30T06:04:03.151Z,17.93
2019-03-30T06:06:32.010Z,21.07
2019-03-30T06:09:00.623Z,19.97
2019-03-30T06:11:29.110Z,19.87
2019-03-30T06:13:57.579Z,20.50
2019-03-30T06:16:26.017Z,19.37
2019-03-30T06:18:54.473Z,19.60
2019-03-30T06:21:22.903Z,18.53
2019-03-30T06:23:51.361Z,20.27
2019-03-30T06:26:19.968Z,20.73
2019-03-30T06:28:48.656Z,20.30
2019-03-30T06:31:17.119Z,21.13
2019-03-30T06:33:45.634Z,20.13
2019-03-30T06:36:14.091Z,20.30
2019-03-30T06:38:42.536Z,17.03
2019-03-30T06:41:11.052Z,18.50
2019-03-30T06:43:39.490Z,18.17
2019-03-30T06:46:07.960Z,21.63
2019-03-30T06:48:36.401Z,19.47
2019-03-30T06:51:04.876Z,19.80
2019-03-30T06:53:33.339Z,20.00
2019-03-30T06:56:01.868Z,18.27
2019-03-30T06:58:30.796Z,19.53
2019-03-30T07:00:59.695Z,18.87
2019-03-30T07:03:28.387Z,21.40
2019-03-30T07:05:58.047Z,18.77
2019-03-30T07:08:28.528Z,17.90
2019-03-30T07:10:58.611Z,19.43
2019-03-30T07:13:28.497Z,19.13
2019-03-30T07:15:59.416Z,19.20
2019-03-30T07:18:28.404Z,19.20
2019-03-30T07:20:56.871Z,19.03
2019-03-30T07:23:26.334Z,19.80
2019-03-30T07:25:55.370Z,18.47
2019-03-30T07:28:23.977Z,17.90
2019-03-30T07:30:52.449Z,20.20
2019-03-30T07:33:20.899Z,19.30
2019-03-30T07:35:49.449Z,18.83
2019-03-30T07:38:17.955Z,20.33
2019-03-30T07:40:46.409Z,19.40
2019-03-30T07:43:14.855Z,19.40
2019-03-30T07:45:43.379Z,19.73
2019-03-30T07:48:11.818Z,18.50
2019-03-30T07:50:40.259Z,21.10
2019-03-30T07:53:09.700Z,20.60
2019-03-30T07:55:38.316Z,18.17
2019-03-30T07:58:06.823Z,18.77
2019-03-30T08:00:35.383Z,19.03
2019-03-30T08:03:04.144Z,17.80
2019-03-30T08:05:32.637Z,17.83
2019-03-30T08:08:01.113Z,18.83
2019-03-30T08:10:29.578Z,20.27
2019-03-30T08:12:58.264Z,19.27
2019-03-30T08:15:26.784Z,19.67
2019-03-30T08:17:55.259Z,17.37
2019-03-30T08:20:23.770Z,17.93
2019-03-30T08:22:52.539Z,19.07
2019-03-30T08:25:20.986Z,17.80
2019-03-30T08:27:49.443Z,19.23
2019-03-30T08:30:17.962Z,18.90
2019-03-30T08:32:46.439Z,20.27
2019-03-30T08:35:14.883Z,19.23
2019-03-30T08:37:43.375Z,20.53
2019-03-30T08:40:12.182Z,19.43
2019-03-30T08:42:40.716Z,20.83
2019-03-30T08:45:09.534Z,21.77
2019-03-30T08:47:38.002Z,20.63
2019-03-30T08:50:08.876Z,19.03
2019-03-30T08:52:37.331Z,19.80
2019-03-30T08:55:08.023Z,20.03
2019-03-30T08:57:36.844Z,19.70
2019-03-30T09:00:06.746Z,20.20
2019-03-30T09:02:35.310Z,18.90
2019-03-30T09:05:05.762Z,19.10
2019-03-30T09:07:34.214Z,19.73
2019-03-30T09:10:03.135Z,19.23
2019-03-30T09:12:31.579Z,20.60
2019-03-30T09:15:00.278Z,20.53
2019-03-30T09:17:28.987Z,21.07
2019-03-30T09:19:57.451Z,21.23
2019-03-30T09:22:25.895Z,21.53
2019-03-30T09:24:55.682Z,20.07
2019-03-30T09:27:24.131Z,18.63
2019-03-30T09:29:52.599Z,21.20
2019-03-30T09:32:21.049Z,20.37
2019-03-30T09:34:49.531Z,21.83
2019-03-30T09:37:18.056Z,18.83
2019-03-30T09:39:46.544Z,18.00
2019-03-30T09:42:14.998Z,20.33
2019-03-30T09:44:43.483Z,20.33
2019-03-30T09:47:11.930Z,21.87
2019-03-30T09:49:40.494Z,20.80
2019-03-30T09:52:08.946Z,21.67
2019-03-30T09:54:37.405Z,21.53
2019-03-30T09:57:05.883Z,19.10
2019-03-30T09:59:34.463Z,19.10
2019-03-30T10:02:02.904Z,20.37
2019-03-30T10:04:31.384Z,19.23
2019-03-30T10:06:59.834Z,20.90
2019-03-30T10:09:28.299Z,18.57
2019-03-30T10:11:57.292Z,20.93
2019-03-30T10:14:25.759Z,21.23
2019-03-30T10:16:54.204Z,21.97
2019-03-30T10:19:22.687Z,19.13
2019-03-30T10:21:51.124Z,19.17
2019-03-30T10:24:19.745Z,19.47
2019-03-30T10:26:48.215Z,18.87
2019-03-30T10:29:16.679Z,19.83
2019-03-30T10:31:45.130Z,17.53
2019-03-30T10:34:13.610Z,18.73
2019-03-30T10:36:42.047Z,19.70
2019-03-30T10:39:10.512Z,18.63
2019-03-30T10:41:38.968Z,19.23
2019-03-30T10:44:07.417Z,21.33
2019-03-30T10:46:35.961Z,18.97
2019-03-30T10:49:04.475Z,18.23
2019-03-30T10:51:32.938Z,16.87
2019-03-30T10:54:01.484Z,19.10
2019-03-30T10:56:29.951Z,17.40
2019-03-30T10:58:58.398Z,21.20
2019-03-30T11:01:26.868Z,17.97
2019-03-30T11:03:55.308Z,20.50
2019-03-30T11:06:23.783Z,17.50
2019-03-30T11:08:52.255Z,17.60
2019-03-30T11:11:20.723Z,18.53
2019-03-30T11:13:49.241Z,17.07
2019-03-30T11:16:17.716Z,18.97
2019-03-30T11:18:46.164Z,18.67
2019-03-30T11:21:14.634Z,18.00
2019-03-30T11:23:43.084Z,15.73
2019-03-30T11:26:11.598Z,17.90
2019-03-30T11:28:40.055Z,19.97
2019-03-30T11:31:08.612Z,19.43
2019-03-30T11:33:37.136Z,17.47
2019-03-30T11:36:05.657Z,18.00
2019-03-30T11:38:34.096Z,17.83
2019-03-30T11:41:02.834Z,17.63
2019-03-30T11:43:31.276Z,19.00
2019-03-30T11:45:59.726Z,17.80
2019-03-30T11:48:28.180Z,20.07
2019-03-30T11:50:56.648Z,17.40
2019-03-30T11:53:25.104Z,18.70
2019-03-30T11:55:53.583Z,17.93
2019-03-30T11:58:22.093Z,16.77
2019-03-30T12:00:50.560Z,17.70
2019-03-30T12:03:19.006Z,16.87
2019-03-30T12:05:47.475Z,17.90
2019-03-30T12:08:15.927Z,15.93
2019-03-30T12:10:44.386Z,15.00
2019-03-30T12:13:12.839Z,17.27
2019-03-30T12:15:41.313Z,15.83
2019-03-30T12:18:09.827Z,16.17
2019-03-30T12:20:38.290Z,17.30
2019-03-30T12:23:06.739Z,14.47
2019-03-30T12:25:36.261Z,19.23
2019-03-30T12:28:04.957Z,16.23
2019-03-30T12:30:33.499Z,14.97
2019-03-30T12:33:01.959Z,15.83
2019-03-30T12:35:31.004Z,16.00
2019-03-30T12:37:59.454Z,15.13
2019-03-30T12:40:27.906Z,15.40
2019-03-30T12:42:56.348Z,14.40
2019-03-30T12:45:24.898Z,13.83
2019-03-30T12:47:53.327Z,15.03
2019-03-30T12:50:21.796Z,11.17
2019-03-30T12:52:50.240Z,10.47
2019-03-30T12:55:18.783Z,13.37
2019-03-30T12:57:47.319Z,10.00
2019-03-30T13:00:16.190Z,8.33
2019-03-30T13:02:44.655Z,10.57
2019-03-30T13:05:13.165Z,8.50
2019-03-30T13:07:41.631Z,8.63
2019-03-30T13:10:10.280Z,8.97
2019-03-30T13:12:38.755Z,10.50
2019-03-30T13:15:08.015Z,10.87
2019-03-30T13:17:36.489Z,11.90
2019-03-30T13:20:06.370Z,12.50
2019-03-30T13:22:34.883Z,11.90
2019-03-30T13:25:03.800Z,10.27
2019-03-30T13:27:32.404Z,9.73
2019-03-30T13:30:00.866Z,14.00
2019-03-30T13:32:29.329Z,13.70
2019-03-30T13:34:57.764Z,12.97
2019-03-30T13:37:26.243Z,20.43
2019-03-30T13:39:54.749Z,11.23
2019-03-30T13:42:23.255Z,11.93
2019-03-30T13:44:51.732Z,11.70
2019-03-30T13:47:20.365Z,12.10
2019-03-30T13:49:48.834Z,13.30
2019-03-30T13:52:17.325Z,15.80
2019-03-30T13:54:45.763Z,9.93
2019-03-30T13:57:14.231Z,12.30
2019-03-30T13:59:42.709Z,10.67
2019-03-30T14:02:11.171Z,10.37
2019-03-30T14:04:39.616Z,14.83
2019-03-30T14:07:08.098Z,13.03
2019-03-30T14:09:36.609Z,11.67
2019-03-30T14:12:05.131Z,10.77
2019-03-30T14:14:33.573Z,9.13
2019-03-30T14:17:02.036Z,10.67
2019-03-30T14:19:30.467Z,9.77
2019-03-30T14:21:58.915Z,9.93
2019-03-30T14:24:27.351Z,9.30
2019-03-30T14:26:55.803Z,9.37
2019-03-30T14:29:24.237Z,9.60
2019-03-30T14:31:52.736Z,8.67
2019-03-30T14:34:21.252Z,9.00
2019-03-30T14:36:50.151Z,10.17
2019-03-30T14:39:18.725Z,8.63
2019-03-30T14:41:47.180Z,9.80
2019-03-30T14:44:15.619Z,9.47
2019-03-30T14:46:44.090Z,8.70
2019-03-30T14:49:12.539Z,10.53
2019-03-30T14:51:41.001Z,8.10
2019-03-30T14:54:09.427Z,9.93
2019-03-30T14:56:45.398Z,10.17
2019-03-30T14:59:10.501Z,8.93
2019-03-30T15:01:38.259Z,7.77
2019-03-30T15:04:06.698Z,9.03
2019-03-30T15:06:35.158Z,9.33
2019-03-30T15:09:04.739Z,11.73
2019-03-30T15:11:33.203Z,8.60
2019-03-30T15:14:01.639Z,9.90
2019-03-30T15:16:30.095Z,9.87
2019-03-30T15:18:58.545Z,10.40
2019-03-30T15:21:26.984Z,10.47
2019-03-30T15:23:55.438Z,8.80
2019-03-30T15:26:23.888Z,9.80
2019-03-30T15:28:52.347Z,9.30
2019-03-30T15:31:20.808Z,10.03
2019-03-30T15:33:49.276Z,10.23
2019-03-30T15:36:17.737Z,8.40
2019-03-30T15:38:46.223Z,8.83
2019-03-30T15:41:14.667Z,7.97
2019-03-30T15:43:43.135Z,7.80
2019-03-30T15:46:14.295Z,8.37
2019-03-30T15:48:41.813Z,8.40
2019-03-30T15:51:10.256Z,9.17
2019-03-30T15:53:38.716Z,9.27
2019-03-30T15:56:07.232Z,8.37
2019-03-30T15:58:35.866Z,10.00
2019-03-30T16:01:04.433Z,13.47
2019-03-30T16:03:32.923Z,9.03
2019-03-30T16:06:01.402Z,8.47
2019-03-30T16:08:29.989Z,8.43
2019-03-30T16:10:58.429Z,8.83
2019-03-30T16:13:26.882Z,9.43
2019-03-30T16:15:55.323Z,9.40
2019-03-30T16:18:23.866Z,8.37
2019-03-30T16:20:52.377Z,9.07
2019-03-30T16:23:20.887Z,8.97
2019-03-30T16:25:49.357Z,7.77
2019-03-30T16:28:17.837Z,8.70
2019-03-30T16:30:46.303Z,9.27
2019-03-30T16:33:14.740Z,9.23
2019-03-30T16:35:43.190Z,10.17
2019-03-30T16:38:11.667Z,9.03
2019-03-30T16:40:40.124Z,9.27
2019-03-30T16:43:08.738Z,8.83
2019-03-30T16:45:37.242Z,9.10
2019-03-30T16:48:06.008Z,8.50
2019-03-30T16:50:34.791Z,8.43
2019-03-30T16:53:03.364Z,9.33
2019-03-30T16:55:31.826Z,9.27
2019-03-30T16:58:00.412Z,8.10
2019-03-30T17:00:33.267Z,9.17
2019-03-30T17:03:03.944Z,9.90
2019-03-30T17:05:32.419Z,7.70
2019-03-30T17:08:00.919Z,8.47
2019-03-30T17:10:29.376Z,9.27
2019-03-30T17:12:57.940Z,8.03
2019-03-30T17:15:26.494Z,8.17
2019-03-30T17:17:54.942Z,9.23
2019-03-30T17:20:23.545Z,7.97
2019-03-30T17:22:52.002Z,8.20
2019-03-30T17:25:20.524Z,9.83
2019-03-30T17:27:58.264Z,9.07
2019-03-30T17:30:19.131Z,9.97
2019-03-30T17:32:47.912Z,8.07
2019-03-30T17:35:16.411Z,8.10
2019-03-30T17:37:44.879Z,8.57
2019-03-30T17:40:13.382Z,9.33
2019-03-30T17:42:41.943Z,10.17
2019-03-30T17:45:11.320Z,9.87
2019-03-30T17:47:39.843Z,9.40
2019-03-30T17:50:08.932Z,11.57
2019-03-30T17:52:37.493Z,8.90
2019-03-30T17:55:06.467Z,9.03
2019-03-30T17:57:34.933Z,8.47
2019-03-30T18:00:07.879Z,10.00
2019-03-30T18:02:35.244Z,11.27
2019-03-30T18:05:04.266Z,11.83
2019-03-30T18:07:32.761Z,12.33
2019-03-30T18:10:03.471Z,11.00
2019-03-30T18:12:32.308Z,12.53
2019-03-30T18:15:00.747Z,11.97
2019-03-30T18:17:29.280Z,11.40
2019-03-30T18:19:57.746Z,13.07
2019-03-30T18:22:26.557Z,12.73
2019-03-30T18:24:55.093Z,11.73
2019-03-30T18:27:23.740Z,11.97
2019-03-30T18:29:52.175Z,13.03
2019-03-30T18:32:20.811Z,11.43
2019-03-30T18:34:50.324Z,10.60
2019-03-30T18:37:18.976Z,12.47
2019-03-30T18:39:47.438Z,11.30
2019-03-30T18:42:15.896Z,12.13
2019-03-30T18:44:44.402Z,10.67
2019-03-30T18:47:13.047Z,12.70
2019-03-30T18:49:42.700Z,12.40
2019-03-30T18:52:11.397Z,12.57
2019-03-30T18:54:41.776Z,13.77
2019-03-30T18:57:10.260Z,13.53
2019-03-30T18:59:38.697Z,13.37
2019-03-30T19:02:07.153Z,13.97
2019-03-30T19:04:35.685Z,12.50
2019-03-30T19:07:04.147Z,13.20
2019-03-30T19:09:32.716Z,12.77
2019-03-30T19:12:01.156Z,17.57
2019-03-30T19:14:29.616Z,19.37
2019-03-30T19:16:58.066Z,18.93
2019-03-30T19:19:26.532Z,19.60
2019-03-30T19:21:55.063Z,16.73
2019-03-30T19:24:23.607Z,16.13
2019-03-30T19:26:52.071Z,18.87
2019-03-30T19:29:20.519Z,16.73
2019-03-30T19:31:48.975Z,15.43
2019-03-30T19:34:17.505Z,18.03
2019-03-30T19:36:46.034Z,20.63
2019-03-30T19:39:14.883Z,18.33
2019-03-30T19:41:43.355Z,16.83
2019-03-30T19:44:11.853Z,15.67
2019-03-30T19:46:40.306Z,14.53
2019-03-30T19:49:08.837Z,13.63
2019-03-30T19:51:37.358Z,13.67
2019-03-30T19:54:05.848Z,14.50
2019-03-30T19:56:34.283Z,13.47
2019-03-30T19:59:10.683Z,14.30
2019-03-30T20:01:33.252Z,11.57
2019-03-30T20:04:01.727Z,11.43
2019-03-30T20:06:34.130Z,16.13
2019-03-30T20:09:07.377Z,18.80
2019-03-30T20:11:36.018Z,12.97
2019-03-30T20:14:04.731Z,12.30
2019-03-30T20:16:33.341Z,12.67
2019-03-30T20:19:11.860Z,14.27
2019-03-30T20:21:35.879Z,15.50
2019-03-30T20:24:04.484Z,21.80
2019-03-30T20:26:32.991Z,18.47
2019-03-30T20:29:01.495Z,19.43
2019-03-30T20:31:30.059Z,15.17
2019-03-30T20:33:58.827Z,13.40
2019-03-30T20:36:28.821Z,14.37
2019-03-30T20:38:57.265Z,12.90
2019-03-30T20:41:25.727Z,12.20
2019-03-30T20:43:54.190Z,12.40
2019-03-30T20:46:22.650Z,11.07
2019-03-30T20:48:51.173Z,11.17
2019-03-30T20:51:19.707Z,9.97
2019-03-30T20:53:48.154Z,10.73
2019-03-30T20:56:16.723Z,11.10
2019-03-30T20:58:45.158Z,10.33
2019-03-30T21:01:13.680Z,10.27
2019-03-30T21:03:42.204Z,11.00
2019-03-30T21:06:10.655Z,11.20
2019-03-30T21:08:39.161Z,10.97
2019-03-30T21:11:07.687Z,10.50
2019-03-30T21:13:36.127Z,10.87
2019-03-30T21:16:04.762Z,11.00
2019-03-30T21:18:33.234Z,11.13
2019-03-30T21:21:01.775Z,12.83
2019-03-30T21:23:30.215Z,11.13
2019-03-30T21:25:58.681Z,10.17
2019-03-30T21:28:27.114Z,11.50
2019-03-30T21:30:55.579Z,10.40
2019-03-30T21:33:24.035Z,12.70
2019-03-30T21:35:52.851Z,12.37
2019-03-30T21:38:21.356Z,11.73
2019-03-30T21:40:49.827Z,13.00
2019-03-30T21:43:19.843Z,12.80
2019-03-30T21:45:48.567Z,12.67
2019-03-30T21:48:17.026Z,11.73
2019-03-30T21:50:45.507Z,11.50
2019-03-30T21:53:13.976Z,11.23
2019-03-30T21:55:42.410Z,12.53
2019-03-30T21:58:10.962Z,10.17
2019-03-30T22:00:40.351Z,10.93
2019-03-30T22:03:08.958Z,10.90
2019-03-30T22:05:37.474Z,11.23
2019-03-30T22:08:06.745Z,11.90
2019-03-30T22:10:35.261Z,10.97
2019-03-30T22:13:04.567Z,10.67
2019-03-30T22:15:33.063Z,11.30
2019-03-30T22:18:01.546Z,9.87
2019-03-30T22:20:30.039Z,10.63
2019-03-30T22:22:58.529Z,8.97
2019-03-30T22:25:27.028Z,8.60
2019-03-30T22:27:55.479Z,9.90
2019-03-30T22:30:25.322Z,10.00
2019-03-30T22:32:54.072Z,10.13
2019-03-30T22:35:22.518Z,9.27
2019-03-30T22:37:50.974Z,9.03
2019-03-30T22:40:19.413Z,9.83
2019-03-30T22:42:47.916Z,9.77
2019-03-30T22:45:16.508Z,10.40
2019-03-30T22:47:44.969Z,9.93
2019-03-30T22:50:13.673Z,9.70
2019-03-30T22:52:42.201Z,10.13
2019-03-30T22:55:11.008Z,9.73
2019-03-30T22:57:39.524Z,9.87
2019-03-30T23:00:09.714Z,10.27
2019-03-30T23:02:38.224Z,12.00
2019-03-30T23:05:06.836Z,10.73
2019-03-30T23:07:35.264Z,9.77
2019-03-30T23:10:05.756Z,10.03
2019-03-30T23:12:34.203Z,10.40
2019-03-30T23:15:02.671Z,9.80
2019-03-30T23:17:31.131Z,10.53
2019-03-30T23:19:59.605Z,10.27
2019-03-30T23:22:28.063Z,10.47
2019-03-30T23:24:56.528Z,9.67
2019-03-30T23:27:24.987Z,9.87
2019-03-30T23:29:53.522Z,9.57
2019-03-30T23:32:21.955Z,9.97
2019-03-30T23:34:50.418Z,10.23
2019-03-30T23:37:18.862Z,10.93
2019-03-30T23:39:47.342Z,10.97
2019-03-30T23:42:15.839Z,10.77
2019-03-30T23:44:44.307Z,10.50
2019-03-30T23:47:12.743Z,10.03
2019-03-30T23:49:41.283Z,9.93
2019-03-30T23:52:09.720Z,10.77
2019-03-30T23:54:38.278Z,10.83
2019-03-30T23:57:06.795Z,10.77
2019-03-30T23:59:35.240Z,10.83
